Time;durP1;ratioP1;P1;durP2;ratioP2;P2;SDS_P1;SDS_P2;PMS_P1;PMS_P2;Temp;Humidity;BMP_temperature;BMP_pressure;BME280_temperature;BME280_humidity;BME280_pressure;Samples;Min_cycle;Max_cycle;Signal;HPM_P1;HPM_P2
2022/04/23 00:01:43;;;;;;;33.75;15.18;;;;;;;7.65;95.34;99789.84;5010669;28;20060;-59
2022/04/23 00:04:10;;;;;;;38.55;16.30;;;;;;;7.71;95.42;99781.25;5009282;28;20145;-66
2022/04/23 00:06:37;;;;;;;36.40;16.35;;;;;;;7.61;95.32;99791.09;5010312;28;20091;-58
2022/04/23 00:09:03;;;;;;;32.90;14.27;;;;;;;7.48;95.72;99765.22;5009982;28;20108;-56
2022/04/23 00:11:29;;;;;;;29.38;14.20;;;;;;;7.61;95.46;99785.72;5010172;28;20107;-57
2022/04/23 00:13:58;;;;;;;29.02;13.15;;;;;;;7.56;95.33;99788.78;5010118;28;20117;-55
2022/04/23 00:16:24;;;;;;;26.75;13.13;;;;;;;7.55;95.31;99787.06;5010308;28;20084;-57
2022/04/23 00:18:51;;;;;;;32.17;13.55;;;;;;;7.51;95.25;99790.16;5009231;28;20224;-58
2022/04/23 00:21:20;;;;;;;30.60;13.95;;;;;;;7.51;94.88;99790.16;4992843;28;20084;-56
2022/04/23 00:23:48;;;;;;;30.40;14.00;;;;;;;7.54;95.52;99797.97;4992881;28;20099;-59
2022/04/23 00:26:14;;;;;;;38.78;13.88;;;;;;;7.55;95.54;99791.59;5008905;28;20037;-57
2022/04/23 00:28:40;;;;;;;31.48;13.75;;;;;;;7.47;95.39;99774.25;5009784;28;20056;-59
2022/04/23 00:31:06;;;;;;;37.35;14.27;;;;;;;7.65;94.97;99792.53;5008542;28;20115;-57
2022/04/23 00:33:37;;;;;;;31.58;14.30;;;;;;;7.72;94.50;99799.13;5008417;28;20054;-58
2022/04/23 00:36:06;;;;;;;43.85;22.35;;;;;;;7.64;95.89;99799.75;5008866;28;20069;-60
2022/04/23 00:38:33;;;;;;;61.65;24.38;;;;;;;7.64;97.62;99806.97;5010013;28;20052;-60
2022/04/23 00:40:59;;;;;;;52.72;25.67;;;;;;;7.59;98.68;99810.03;5008673;28;20053;-58
2022/04/23 00:43:26;;;;;;;51.78;26.40;;;;;;;7.55;99.02;99802.34;5010404;28;20049;-58
2022/04/23 00:45:51;;;;;;;59.53;25.50;;;;;;;7.38;99.81;99807.28;4992382;28;20057;-55
2022/04/23 00:48:18;;;;;;;48.15;22.52;;;;;;;7.35;100.00;99807.56;5009891;28;20486;-59
2022/04/23 00:50:43;;;;;;;46.00;23.73;;;;;;;7.27;99.86;99804.63;5009650;28;20262;-57
2022/04/23 00:53:09;;;;;;;52.05;23.25;;;;;;;7.25;100.00;99812.00;5008091;28;20537;-58
2022/04/23 00:55:36;;;;;;;48.80;21.00;;;;;;;7.25;100.00;99796.72;4992207;28;20398;-59
2022/04/23 00:58:02;;;;;;;46.55;20.48;;;;;;;7.31;99.69;99798.03;5008541;28;20476;-57
2022/04/23 01:00:28;;;;;;;48.72;20.90;;;;;;;7.34;98.71;99805.84;5008458;28;20468;-57
2022/04/23 01:02:55;;;;;;;41.45;22.20;;;;;;;7.31;98.98;99794.47;5010051;28;20049;-59
2022/04/23 01:05:24;;;;;;;38.42;21.40;;;;;;;7.35;98.97;99799.50;5008417;28;20055;-59
2022/04/23 01:07:51;;;;;;;47.00;23.77;;;;;;;7.37;98.47;99800.22;5009884;28;20045;-58
2022/04/23 01:10:18;;;;;;;51.40;23.45;;;;;;;7.42;98.10;99792.63;5008189;28;20060;-59
2022/04/23 01:12:47;;;;;;;43.45;21.02;;;;;;;7.42;97.53;99792.63;5009934;28;20476;-61
2022/04/23 01:15:14;;;;;;;49.95;23.05;;;;;;;7.49;97.00;99799.22;5008480;28;20099;-58
2022/04/23 01:17:40;;;;;;;45.80;21.25;;;;;;;7.47;97.05;99795.78;5009988;28;20054;-58
2022/04/23 01:20:11;;;;;;;36.03;20.13;;;;;;;7.52;96.77;99798.09;5008713;28;20137;-55
2022/04/23 01:22:37;;;;;;;47.95;21.48;;;;;;;7.39;96.56;99766.00;5013035;28;20529;-59
2022/04/23 01:25:06;;;;;;;44.42;20.48;;;;;;;7.61;96.08;99796.47;5014244;28;20042;-56
2022/04/23 01:27:34;;;;;;;45.97;20.00;;;;;;;7.68;94.83;99787.75;5012986;28;20478;-57
2022/04/23 01:30:05;;;;;;;41.78;19.42;;;;;;;7.75;94.55;99793.44;4997119;28;20065;-54
2022/04/23 01:32:31;;;;;;;40.00;20.40;;;;;;;7.79;94.33;99778.78;5014386;28;20517;-58
2022/04/23 01:34:56;;;;;;;40.13;20.42;;;;;;;7.85;94.54;99782.75;4996342;28;20056;-58
2022/04/23 01:37:22;;;;;;;43.88;22.15;;;;;;;7.83;94.66;99782.91;5014056;28;20054;-55
2022/04/23 01:39:48;;;;;;;114.45;62.45;;;;;;;7.92;94.28;99794.72;5012335;28;20108;-58
2022/04/23 01:42:17;;;;;;;74.60;39.25;;;;;;;7.93;94.19;99785.66;5014165;28;20059;-58
2022/04/23 01:44:45;;;;;;;61.60;32.22;;;;;;;8.00;94.52;99786.84;5014003;28;20529;-59
2022/04/23 01:47:12;;;;;;;45.22;22.27;;;;;;;7.93;94.96;99791.91;5014019;28;20041;-57
2022/04/23 01:49:38;;;;;;;48.20;21.67;;;;;;;7.88;94.65;99783.34;5013791;28;20386;-57
2022/04/23 01:52:04;;;;;;;61.13;31.90;;;;;;;7.83;94.74;99785.59;5013534;28;20407;-55
2022/04/23 01:54:30;;;;;;;42.17;22.48;;;;;;;7.79;94.79;99783.28;5013809;28;20045;-56
2022/04/23 01:56:59;;;;;;;45.67;20.73;;;;;;;7.78;94.63;99782.44;5012139;28;20049;-57
2022/04/23 01:59:26;;;;;;;44.80;20.27;;;;;;;7.76;95.60;99780.88;5014139;28;20041;-59
2022/04/23 02:01:52;;;;;;;48.25;21.35;;;;;;;7.68;96.01;99781.53;4979761;28;20050;-59
2022/04/23 02:04:19;;;;;;;47.90;22.10;;;;;;;7.63;96.55;99772.97;5013554;28;20109;-55
2022/04/23 02:06:45;;;;;;;43.40;21.35;;;;;;;7.69;96.56;99777.84;5011931;28;20061;-62
2022/04/23 02:09:11;;;;;;;42.72;19.48;;;;;;;7.66;96.20;99772.72;5013391;28;20509;-57
2022/04/23 02:11:37;;;;;;;40.10;20.35;;;;;;;7.63;96.09;99778.34;5011463;28;20077;-57
2022/04/23 02:14:03;;;;;;;47.58;21.10;;;;;;;7.61;96.33;99781.19;5011177;28;20057;-60
2022/04/23 02:16:29;;;;;;;39.60;20.13;;;;;;;7.62;96.22;99776.66;5012729;28;20540;-57
2022/04/23 02:18:57;;;;;;;51.42;20.95;;;;;;;7.63;96.10;99778.34;5010822;28;20407;-57
2022/04/23 02:21:27;;;;;;;38.55;19.13;;;;;;;7.75;94.83;99777.31;5012301;28;20127;-54
2022/04/23 02:23:53;;;;;;;38.38;19.50;;;;;;;7.81;94.77;99782.19;5011930;28;20408;-55
2022/04/23 02:26:20;;;;;;;38.63;19.27;;;;;;;7.84;94.36;99787.31;5010707;28;20061;-54
2022/04/23 02:28:49;;;;;;;38.45;18.67;;;;;;;7.72;94.52;99766.81;5012175;28;20112;-57
2022/04/23 02:31:15;;;;;;;44.63;19.83;;;;;;;7.80;94.46;99785.84;5010564;28;20045;-57
2022/04/23 02:33:41;;;;;;;38.42;20.20;;;;;;;7.82;94.26;99781.19;5011308;28;20042;-55
2022/04/23 02:36:07;;;;;;;37.13;18.73;;;;;;;7.90;94.62;99780.56;5011867;28;20516;-59
2022/04/23 02:38:34;;;;;;;43.58;19.92;;;;;;;7.85;95.33;99780.06;5010638;28;20248;-56
2022/04/23 02:41:00;;;;;;;42.08;20.77;;;;;;;7.84;95.23;99775.69;5011709;28;20042;-59
2022/04/23 02:43:26;;;;;;;40.97;20.20;;;;;;;7.86;95.63;99785.34;5011397;28;20065;-57
2022/04/23 02:45:52;;;;;;;50.63;21.83;;;;;;;7.88;95.62;99782.50;5011918;28;20039;-57
2022/04/23 02:48:18;;;;;;;45.92;22.58;;;;;;;7.92;95.40;99778.56;5011768;28;20053;-57
2022/04/23 02:50:44;;;;;;;38.45;20.75;;;;;;;7.79;96.12;99772.50;5011590;28;20076;-57
2022/04/23 02:53:10;;;;;;;41.15;21.02;;;;;;;7.71;96.21;99770.47;5010054;28;20094;-57
2022/04/23 02:55:37;;;;;;;41.28;20.23;;;;;;;7.69;97.05;99767.94;5011694;28;20405;-56
2022/04/23 02:58:04;;;;;;;47.17;20.90;;;;;;;7.77;96.81;99780.72;5011516;28;20054;-54
2022/04/23 03:00:31;;;;;;;42.28;20.52;;;;;;;7.76;96.43;99778.19;5011538;28;20041;-58
2022/04/23 03:02:57;;;;;;;41.10;19.15;;;;;;;7.75;96.96;99777.31;4993690;28;20050;-58
2022/04/23 03:05:24;;;;;;;46.80;22.75;;;;;;;7.77;96.92;99777.19;5011523;28;20551;-57
2022/04/23 03:07:50;;;;;;;46.20;20.02;;;;;;;7.64;96.96;99753.16;5009925;28;20124;-58
2022/04/23 03:10:18;;;;;;;45.25;21.38;;;;;;;7.85;96.56;99778.22;5009468;28;20073;-60
2022/04/23 03:12:43;;;;;;;39.78;20.15;;;;;;;7.73;95.66;99741.63;4977296;28;20100;-55
2022/04/23 03:15:12;;;;;;;43.60;19.38;;;;;;;8.06;94.94;99774.69;5009891;28;20045;-56
2022/04/23 03:17:38;;;;;;;36.97;19.38;;;;;;;8.02;95.17;99784.03;5009781;28;20050;-55
2022/04/23 03:20:05;;;;;;;40.85;21.45;;;;;;;7.84;95.48;99749.63;5011084;28;20046;-57
2022/04/23 03:22:30;;;;;;;40.92;20.42;;;;;;;8.03;95.59;99774.97;4993109;28;20171;-55
2022/04/23 03:24:56;;;;;;;40.95;20.30;;;;;;;8.05;95.20;99775.69;5010669;28;20076;-57
2022/04/23 03:27:22;;;;;;;41.60;20.20;;;;;;;8.15;95.28;99779.28;5010835;28;20065;-56
2022/04/23 03:29:48;;;;;;;36.78;20.85;;;;;;;8.24;94.60;99783.88;5009416;28;20450;-57
2022/04/23 03:32:14;;;;;;;44.92;20.13;;;;;;;8.29;93.97;99781.63;5009049;28;20068;-57
2022/04/23 03:34:40;;;;;;;46.55;22.08;;;;;;;8.25;94.01;99780.19;5010263;28;20084;-58
2022/04/23 03:37:05;;;;;;;46.13;20.73;;;;;;;8.17;93.65;99775.47;5009250;28;20164;-58
2022/04/23 03:39:35;;;;;;;47.63;21.17;;;;;;;8.24;93.31;99783.88;5010834;28;20525;-58
2022/04/23 03:42:02;;;;;;;42.90;21.10;;;;;;;8.37;92.70;99778.25;5008909;28;20141;-58
2022/04/23 03:44:29;;;;;;;43.78;21.30;;;;;;;8.39;92.96;99777.19;5010291;28;20060;-55
2022/04/23 03:46:56;;;;;;;45.58;22.17;;;;;;;8.41;92.46;99771.69;5008895;28;20128;-56
2022/04/23 03:49:23;;;;;;;39.38;20.70;;;;;;;8.49;92.15;99773.69;5010221;28;20050;-59
2022/04/23 03:51:50;;;;;;;44.20;21.05;;;;;;;8.29;92.45;99757.38;5008851;28;20046;-58
2022/04/23 03:54:16;;;;;;;43.95;19.30;;;;;;;8.40;92.78;99786.97;5008892;28;20115;-57
2022/04/23 03:56:43;;;;;;;46.80;21.95;;;;;;;8.48;93.18;99780.06;5009947;28;20042;-55
2022/04/23 03:59:09;;;;;;;40.13;18.85;;;;;;;8.48;93.04;99774.66;5009987;28;20052;-59
2022/04/23 04:01:35;;;;;;;38.80;20.77;;;;;;;8.45;92.65;99760.50;5009749;28;20049;-57
2022/04/23 04:04:01;;;;;;;37.53;21.20;;;;;;;8.62;93.18;99779.69;5010085;28;20090;-59
2022/04/23 04:06:27;;;;;;;39.35;19.58;;;;;;;8.64;93.64;99775.03;4992089;28;20407;-59
2022/04/23 04:08:55;;;;;;;46.42;20.73;;;;;;;8.54;93.92;99784.91;5010024;28;20151;-58
2022/04/23 04:11:21;;;;;;;46.08;21.75;;;;;;;8.74;93.68;99775.94;5009787;28;20548;-59
2022/04/23 04:13:47;;;;;;;51.47;22.33;;;;;;;8.80;94.24;99775.34;5009749;28;20171;-57
2022/04/23 04:16:14;;;;;;;46.03;22.30;;;;;;;8.84;93.76;99774.09;5008956;28;20088;-58
2022/04/23 04:18:40;;;;;;;44.53;20.65;;;;;;;8.74;93.27;99748.97;4992333;28;20050;-58
2022/04/23 04:21:07;;;;;;;39.55;20.17;;;;;;;8.68;93.36;99768.38;5009642;28;20546;-54
2022/04/23 04:23:33;;;;;;;39.35;20.15;;;;;;;8.55;94.19;99765.91;4992184;28;20497;-56
2022/04/23 04:26:00;;;;;;;42.55;20.92;;;;;;;8.57;94.11;99760.41;5010187;28;20049;-58
2022/04/23 04:28:26;;;;;;;38.40;21.30;;;;;;;8.67;93.80;99777.47;5010275;28;20554;-55
2022/04/23 04:33:38;;;;;;;44.53;20.55;;;;;;;9.01;92.51;99787.91;5010005;28;20140;-57
2022/04/23 04:36:04;;;;;;;40.25;22.02;;;;;;;9.31;92.75;99768.09;5009908;28;20135;-55
2022/04/23 04:38:30;;;;;;;46.47;22.52;;;;;;;9.39;92.77;99773.63;4992466;28;20533;-56
2022/04/23 04:40:56;;;;;;;51.17;23.70;;;;;;;9.45;92.39;99783.03;5010193;28;20049;-56
2022/04/23 04:43:22;;;;;;;51.45;23.48;;;;;;;9.36;92.26;99782.88;5010217;28;20060;-57
2022/04/23 04:45:48;;;;;;;52.22;23.42;;;;;;;9.23;91.70;99787.69;5008551;28;20054;-57
2022/04/23 04:48:15;;;;;;;46.70;23.15;;;;;;;9.38;92.50;99788.13;5010048;28;20050;-56
2022/04/23 04:50:41;;;;;;;43.33;22.42;;;;;;;9.47;91.92;99784.59;5009898;28;20489;-56
2022/04/23 04:53:07;;;;;;;40.72;21.13;;;;;;;9.32;91.69;99767.94;5008183;28;20042;-57
2022/04/23 04:55:34;;;;;;;47.45;22.55;;;;;;;9.61;92.11;99788.72;5010096;28;20054;-59
2022/04/23 04:58:00;;;;;;;44.03;22.23;;;;;;;9.48;91.59;99785.44;5013933;28;20127;-58
2022/04/23 05:00:27;;;;;;;44.55;21.95;;;;;;;9.39;91.96;99787.97;5013175;28;20054;-59
2022/04/23 05:02:54;;;;;;;46.22;22.85;;;;;;;9.28;92.11;99785.41;5013694;28;20050;-57
2022/04/23 05:05:20;;;;;;;53.30;22.73;;;;;;;9.35;90.83;99774.91;5012976;28;20177;-57
2022/04/23 05:07:46;;;;;;;42.72;22.77;;;;;;;9.57;90.38;99781.88;5013412;28;20516;-59
2022/04/23 05:10:12;;;;;;;38.65;21.25;;;;;;;9.40;88.18;99778.91;5013195;28;20200;-55
2022/04/23 05:12:37;;;;;;;39.72;19.63;;;;;;;9.39;87.56;99785.28;5013726;28;20050;-54
2022/04/23 05:15:04;;;;;;;37.13;17.95;;;;;;;9.34;87.72;99787.56;5013003;28;20474;-57
2022/04/23 05:17:30;;;;;;;35.70;18.50;;;;;;;9.40;87.25;99788.84;5011816;28;20425;-56
2022/04/23 05:19:56;;;;;;;39.33;21.05;;;;;;;9.37;87.39;99763.00;5013150;28;20129;-58
2022/04/23 05:22:21;;;;;;;32.05;17.48;;;;;;;9.52;86.97;99773.38;5013345;28;20515;-55
2022/04/23 05:24:47;;;;;;;38.63;19.08;;;;;;;9.50;86.64;99783.44;5012913;28;20049;-56
2022/04/23 05:27:13;;;;;;;37.88;18.02;;;;;;;9.55;86.16;99786.59;5011255;28;20486;-58
2022/04/23 05:29:39;;;;;;;42.55;20.92;;;;;;;9.35;87.03;99764.97;5001363;28;20058;-57
2022/04/23 05:32:05;;;;;;;43.70;19.60;;;;;;;9.44;87.29;99774.09;5029079;28;20129;-58
2022/04/23 05:34:34;;;;;;;36.78;19.65;;;;;;;9.47;87.24;99770.22;5019951;28;20121;-57
2022/04/23 05:37:00;;;;;;;38.72;20.75;;;;;;;9.62;87.12;99782.34;5010981;28;20082;-61
2022/04/23 05:39:26;;;;;;;36.88;19.17;;;;;;;9.81;85.76;99776.91;5028205;28;20041;-58
2022/04/23 05:41:52;;;;;;;34.70;20.02;;;;;;;9.98;84.97;99782.56;5012540;28;20056;-59
2022/04/23 05:44:18;;;;;;;35.85;19.30;;;;;;;10.47;83.38;99772.56;5010530;28;20052;-59
2022/04/23 05:46:43;;;;;;;41.42;19.92;;;;;;;11.14;79.71;99771.38;5003312;28;20564;-58
2022/04/23 05:49:09;;;;;;;32.28;18.55;;;;;;;11.94;77.25;99752.53;5026000;28;20072;-57
2022/04/23 05:51:35;;;;;;;32.25;18.15;;;;;;;12.29;74.72;99768.72;5012901;28;20366;-60
2022/04/23 05:54:01;;;;;;;30.38;15.93;;;;;;;12.75;71.15;99766.59;5026537;28;20490;-59
2022/04/23 05:56:27;;;;;;;29.95;15.60;;;;;;;13.48;66.39;99766.00;5028566;28;20041;-57
2022/04/23 05:58:52;;;;;;;32.33;17.30;;;;;;;13.64;66.15;99759.75;5029338;28;20116;-61
2022/04/23 06:01:18;;;;;;;28.55;16.27;;;;;;;13.72;67.03;99757.03;5029592;28;20064;-58
2022/04/23 06:03:44;;;;;;;29.38;15.25;;;;;;;13.54;65.69;99764.50;5024305;28;20417;-59
2022/04/23 06:06:09;;;;;;;28.77;15.52;;;;;;;13.08;65.28;99755.84;5029981;28;20132;-58
2022/04/23 06:08:40;;;;;;;26.48;16.00;;;;;;;12.42;66.80;99762.00;5026970;28;20049;-59
2022/04/23 06:11:06;;;;;;;35.00;19.27;;;;;;;11.78;68.91;99761.34;5008200;28;20185;-60
2022/04/23 06:13:32;;;;;;;28.38;16.67;;;;;;;12.21;68.05;99765.06;5009551;28;20149;-60
2022/04/23 06:15:58;;;;;;;28.80;17.40;;;;;;;12.48;67.32;99742.38;4977742;28;20038;-61
2022/04/23 06:18:24;;;;;;;29.95;16.55;;;;;;;12.68;67.43;99762.81;5005887;28;20057;-59
2022/04/23 06:20:50;;;;;;;27.30;16.48;;;;;;;12.42;68.06;99765.56;4993916;28;20100;-59
2022/04/23 06:23:16;;;;;;;31.38;16.63;;;;;;;12.32;68.05;99767.53;4995400;28;20058;-58
2022/04/23 06:25:42;;;;;;;31.52;18.27;;;;;;;12.00;69.20;99765.47;5011642;28;20050;-59
2022/04/23 06:28:10;;;;;;;31.38;17.85;;;;;;;12.09;69.29;99764.50;5009900;28;20057;-60
2022/04/23 06:30:37;;;;;;;27.90;18.38;;;;;;;12.18;69.64;99771.69;5011423;28;20093;-58
2022/04/23 06:33:04;;;;;;;32.10;19.20;;;;;;;12.06;69.17;99762.94;4998373;28;20053;-58
2022/04/23 06:35:30;;;;;;;35.67;19.13;;;;;;;12.03;69.36;99767.84;5028109;28;20065;-59
2022/04/23 06:37:57;;;;;;;31.42;18.30;;;;;;;11.78;70.64;99770.31;5013637;28;20056;-59
2022/04/23 06:40:23;;;;;;;34.10;19.75;;;;;;;11.51;71.41;99752.28;5029409;28;20172;-58
2022/04/23 06:42:49;;;;;;;35.42;20.08;;;;;;;11.56;71.93;99776.22;5020989;28;20517;-59
2022/04/23 06:45:19;;;;;;;35.83;19.50;;;;;;;11.93;69.74;99767.94;5007074;28;20263;-59
2022/04/23 06:47:45;;;;;;;34.63;18.10;;;;;;;11.68;70.62;99764.13;5005727;28;20421;-63
2022/04/23 06:50:11;;;;;;;29.20;17.88;;;;;;;11.88;70.20;99770.25;4997809;28;20046;-59
2022/04/23 06:52:37;;;;;;;31.58;17.90;;;;;;;12.18;68.15;99766.25;4978566;28;20042;-56
2022/04/23 06:55:04;;;;;;;27.95;17.30;;;;;;;12.46;66.38;99774.22;4963376;28;20057;-59
2022/04/23 06:57:30;;;;;;;31.15;18.63;;;;;;;12.53;66.27;99761.72;4995068;28;20050;-60
2022/04/23 06:59:59;;;;;;;32.03;16.67;;;;;;;12.68;66.18;99768.25;4993963;28;20537;-57
2022/04/23 07:02:25;;;;;;;31.75;18.17;;;;;;;13.20;64.82;99770.84;4992239;28;20135;-59
2022/04/23 07:04:51;;;;;;;38.88;18.27;;;;;;;12.94;64.69;99767.34;4994951;28;20073;-61
2022/04/23 07:07:17;;;;;;;33.85;17.02;;;;;;;13.25;62.86;99759.50;4994656;28;20046;-63
2022/04/23 07:09:43;;;;;;;31.70;17.58;;;;;;;12.73;64.13;99770.50;5003431;28;20077;-63
2022/04/23 07:12:10;;;;;;;29.90;16.45;;;;;;;12.78;64.42;99763.53;4975775;28;20425;-64
2022/04/23 07:14:36;;;;;;;31.80;18.08;;;;;;;13.21;62.41;99764.38;4959387;28;20117;-60
2022/04/23 07:17:02;;;;;;;26.92;17.92;;;;;;;13.14;62.24;99741.63;4996693;28;20078;-63
2022/04/23 07:19:30;;;;;;;28.63;18.35;;;;;;;13.37;62.09;99762.75;4995187;28;20044;-63
2022/04/23 07:21:56;;;;;;;29.95;18.30;;;;;;;13.47;61.81;99763.47;4959351;28;20085;-71
2022/04/23 07:24:22;;;;;;;32.28;18.52;;;;;;;13.32;62.95;99754.28;4965802;28;20398;-64
2022/04/23 07:26:48;;;;;;;57.50;20.30;;;;;;;13.19;63.78;99760.13;4965625;28;20053;-64
2022/04/23 07:29:14;;;;;;;41.30;18.27;;;;;;;13.48;62.26;99759.72;4971805;28;20082;-61
2022/04/23 07:31:40;;;;;;;41.33;18.92;;;;;;;14.06;61.68;99752.44;4959504;28;20045;-66
2022/04/23 07:39:36;;;;;;;34.85;19.85;;;;;;;14.10;59.67;99757.38;4963029;28;20043;-67
2022/04/23 07:42:04;;;;;;;34.15;20.27;;;;;;;13.88;58.69;99747.19;4974494;28;20075;-64
2022/04/23 07:44:30;;;;;;;31.92;18.60;;;;;;;14.13;58.87;99754.31;4975976;28;20073;-64
2022/04/23 07:46:56;;;;;;;36.33;18.98;;;;;;;14.53;57.71;99749.84;4997339;28;20509;-65
2022/04/23 07:49:22;;;;;;;36.40;20.27;;;;;;;14.89;56.89;99758.41;4960391;28;20502;-63
2022/04/23 07:51:49;;;;;;;39.35;19.90;;;;;;;15.24;55.42;99745.28;4958098;28;20049;-65
2022/04/23 07:54:15;;;;;;;35.38;18.38;;;;;;;15.83;54.13;99747.44;4971074;28;20046;-65
2022/04/23 07:56:41;;;;;;;34.13;18.50;;;;;;;15.91;53.21;99745.53;4969511;28;20090;-65
2022/04/23 07:59:08;;;;;;;33.55;16.73;;;;;;;16.22;50.95;99738.25;4988429;28;20135;-65
2022/04/23 08:01:34;;;;;;;33.63;16.08;;;;;;;15.94;50.81;99743.44;4976839;28;20081;-64
2022/04/23 08:04:03;;;;;;;25.45;14.57;;;;;;;15.92;50.29;99743.66;4976556;28;20545;-66
2022/04/23 08:06:30;;;;;;;30.58;15.50;;;;;;;15.76;51.68;99731.00;4974734;28;20046;-66
2022/04/23 08:08:55;;;;;;;29.70;15.68;;;;;;;15.35;52.30;99750.31;4944067;28;20569;-64
2022/04/23 08:11:24;;;;;;;28.35;14.25;;;;;;;15.67;51.04;99746.56;4976772;28;20053;-65
2022/04/23 08:13:50;;;;;;;28.02;14.10;;;;;;;16.03;50.64;99737.75;4978052;28;20050;-65
2022/04/23 08:16:17;;;;;;;24.92;13.38;;;;;;;16.40;48.44;99733.28;5005843;28;20073;-67
2022/04/23 08:18:43;;;;;;;23.70;13.40;;;;;;;16.51;47.94;99716.44;4965859;28;20129;-67
2022/04/23 08:21:09;;;;;;;26.08;12.70;;;;;;;16.70;47.86;99739.59;4975882;28;20198;-64
2022/04/23 08:23:35;;;;;;;35.28;13.20;;;;;;;16.87;47.25;99743.03;4962489;28;20050;-66
2022/04/23 08:26:05;;;;;;;20.75;11.10;;;;;;;17.40;45.32;99713.59;4971117;28;20416;-64
2022/04/23 08:31:16;;;;;;;27.10;13.77;;;;;;;19.55;41.07;99718.41;4977992;28;20080;-62
2022/04/23 08:34:00;;;;;;;21.25;11.18;;;;;;;21.08;36.97;99732.91;5008626;28;20438;-65
2022/04/23 08:36:36;;;;;;;18.23;12.07;;;;;;;20.86;38.20;99726.84;5009605;28;20117;-65
2022/04/23 08:39:06;;;;;;;;;;;;;;;20.11;37.05;99734.53;5003625;28;20052;-65
2022/04/23 08:41:34;;;;;;;22.90;12.02;;;;;;;19.70;39.26;99719.09;4973675;28;20307;-62
2022/04/23 08:44:05;;;;;;;26.77;13.25;;;;;;;21.13;36.50;99713.81;5018760;28;20088;-65
2022/04/23 08:46:36;;;;;;;18.70;11.07;;;;;;;21.99;34.56;99727.09;5026103;28;20128;-66
2022/04/23 08:49:16;;;;;;;16.95;10.52;;;;;;;22.72;32.13;99729.19;5007166;28;20046;-63
2022/04/23 08:51:52;;;;;;;18.48;11.18;;;;;;;22.33;33.12;99723.00;5016000;28;20450;-65
2022/04/23 08:54:18;;;;;;;17.80;11.23;;;;;;;22.02;32.87;99725.81;4985936;28;20128;-64
2022/04/23 08:56:45;;;;;;;20.55;11.43;;;;;;;23.10;31.36;99733.66;4993373;28;20057;-64
2022/04/23 08:59:13;;;;;;;18.63;11.90;;;;;;;21.31;34.17;99713.09;4981826;28;20155;-64
2022/04/23 09:01:40;;;;;;;17.73;11.25;;;;;;;22.22;33.65;99726.50;5009019;28;20081;-64
2022/04/23 09:04:07;;;;;;;18.85;12.35;;;;;;;19.90;37.02;99710.91;4999088;28;20147;-63
2022/04/23 09:06:36;;;;;;;19.33;12.18;;;;;;;19.71;37.34;99724.38;5009301;28;20099;-65
2022/04/23 09:09:21;;;;;;;20.35;12.23;;;;;;;20.95;35.69;99717.28;5006733;28;20119;-64
2022/04/23 09:11:52;;;;;;;18.70;10.20;;;;;;;20.62;35.56;99720.13;4991632;28;20413;-64
2022/04/23 09:14:29;;;;;;;18.60;10.88;;;;;;;19.95;35.47;99708.34;5023134;28;20052;-62
2022/04/23 09:25:23;;;;;;;22.92;14.13;;;;;;;20.09;37.09;99717.44;5008967;28;20049;-64
2022/04/23 09:27:49;;;;;;;22.00;13.20;;;;;;;19.54;38.40;99717.56;4999508;28;20049;-63
2022/04/23 09:30:15;;;;;;;28.38;15.18;;;;;;;18.24;41.26;99715.66;5022603;28;20128;-64
2022/04/23 09:32:58;;;;;;;25.63;14.00;;;;;;;17.35;43.78;99688.75;5020537;28;20053;-64
2022/04/23 09:35:25;;;;;;;28.48;13.00;;;;;;;17.95;42.76;99711.22;5025459;28;20577;-62
2022/04/23 09:40:35;;;;;;;22.00;14.05;;;;;;;18.73;40.44;99709.25;5026638;28;20059;-65
2022/04/23 09:43:06;;;;;;;25.98;13.80;;;;;;;19.74;38.21;99712.13;4991440;28;20049;-63
2022/04/23 09:45:32;;;;;;;21.58;13.15;;;;;;;20.20;37.63;99711.31;5012417;28;20489;-60
2022/04/23 09:48:16;;;;;;;22.60;14.20;;;;;;;20.15;37.67;99719.34;5027960;28;20045;-63
2022/04/23 09:50:45;;;;;;;24.50;12.25;;;;;;;21.68;33.99;99703.16;4997658;28;20045;-63
2022/04/23 09:53:12;;;;;;;18.83;12.55;;;;;;;22.37;33.50;99706.88;5023265;28;20144;-62
2022/04/23 09:55:39;;;;;;;22.77;12.07;;;;;;;22.83;32.08;99689.84;5011699;28;20056;-63
2022/04/23 09:58:07;;;;;;;26.75;12.90;;;;;;;20.69;35.55;99701.72;5011845;28;20492;-63
2022/04/23 10:00:36;;;;;;;25.63;13.02;;;;;;;21.26;34.53;99704.69;5012039;28;20050;-63
2022/04/23 10:03:06;;;;;;;18.60;12.00;;;;;;;21.47;34.09;99696.13;4993805;28;20181;-63
2022/04/23 10:05:37;;;;;;;17.25;11.45;;;;;;;20.82;34.31;99693.44;5024763;28;20042;-63
2022/04/23 10:08:04;;;;;;;19.13;11.63;;;;;;;21.97;33.16;99692.59;5012896;28;20108;-62
2022/04/23 10:10:32;;;;;;;22.58;11.73;;;;;;;21.26;33.95;99671.69;4985370;28;20046;-62
2022/04/23 10:12:58;;;;;;;22.05;12.13;;;;;;;21.19;34.83;99686.31;5011836;28;20485;-64
2022/04/23 10:15:24;;;;;;;23.90;11.43;;;;;;;21.19;34.62;99689.06;5012723;28;20054;-64
2022/04/23 10:17:50;;;;;;;21.08;11.65;;;;;;;22.88;31.87;99695.50;5011279;28;20122;-63
2022/04/23 10:20:16;;;;;;;18.35;11.90;;;;;;;21.88;32.87;99697.53;5011714;28;20049;-64
2022/04/23 10:22:59;;;;;;;21.20;10.95;;;;;;;22.56;31.51;99693.97;5007606;28;20413;-62
2022/04/23 10:25:49;;;;;;;22.42;10.65;;;;;;;21.63;33.17;99690.09;4997452;28;20071;-62
2022/04/23 10:28:16;;;;;;;16.40;10.40;;;;;;;20.10;35.33;99683.44;5016715;28;20137;-63
2022/04/23 10:30:46;;;;;;;18.08;10.25;;;;;;;19.15;37.34;99690.88;5010405;28;20049;-63
2022/04/23 10:33:28;;;;;;;17.25;10.93;;;;;;;18.76;38.31;99682.31;5008570;28;20572;-62
2022/04/23 10:36:08;;;;;;;20.10;10.55;;;;;;;19.01;37.90;99679.03;5010724;28;20038;-61
2022/04/23 10:38:38;;;;;;;17.10;10.27;;;;;;;19.50;36.67;99678.75;5015398;28;20054;-61
2022/04/23 10:41:07;;;;;;;16.67;10.15;;;;;;;21.14;33.99;99679.78;4992329;28;20070;-62
2022/04/23 10:43:33;;;;;;;22.30;11.07;;;;;;;19.38;36.74;99677.69;5019029;28;20052;-62
2022/04/23 10:46:00;;;;;;;20.17;11.85;;;;;;;20.68;34.74;99678.06;5027797;28;20038;-63
2022/04/23 10:48:27;;;;;;;17.52;11.00;;;;;;;21.73;33.38;99667.59;5025099;28;20041;-64
2022/04/23 10:51:12;;;;;;;25.35;12.75;;;;;;;20.77;34.55;99665.78;5027655;28;20054;-66
2022/04/23 10:53:38;;;;;;;19.60;10.88;;;;;;;21.76;33.12;99664.41;5017810;28;20054;-62
2022/04/23 10:56:10;;;;;;;19.48;11.15;;;;;;;21.49;32.76;99660.16;5009676;28;20057;-63
2022/04/23 10:58:42;;;;;;;19.90;11.07;;;;;;;22.23;32.81;99652.97;5009540;28;20533;-62
2022/04/23 11:01:23;;;;;;;16.90;9.50;;;;;;;21.43;32.45;99657.22;5009747;28;20046;-63
2022/04/23 11:03:56;;;;;;;20.10;10.98;;;;;;;20.57;34.29;99654.03;5018429;28;20053;-64
2022/04/23 11:12:20;;;;;;;19.52;11.80;;;;;;;20.02;35.50;99647.97;5024825;28;20052;-65
2022/04/23 11:14:49;;;;;;;22.50;11.10;;;;;;;21.24;33.37;99652.63;5000134;28;20051;-63
2022/04/23 11:17:23;;;;;;;17.45;9.73;;;;;;;20.51;33.31;99633.75;5006985;28;20045;-62
2022/04/23 11:19:55;;;;;;;26.63;10.13;;;;;;;19.81;35.35;99638.91;4996057;28;20125;-63
2022/04/23 11:22:21;;;;;;;18.17;9.93;;;;;;;19.83;35.17;99639.56;4992055;28;20046;-64
2022/04/23 11:24:52;;;;;;;20.70;10.10;;;;;;;19.52;35.76;99632.78;4994085;28;20057;-64
2022/04/23 11:27:28;;;;;;;16.67;9.40;;;;;;;19.69;35.92;99632.38;5003674;28;20033;-66
2022/04/23 11:29:55;;;;;;;22.02;10.05;;;;;;;20.13;34.28;99639.09;4976987;28;20046;-72
2022/04/23 11:32:31;;;;;;;18.35;9.77;;;;;;;20.62;32.78;99633.09;4993224;28;20597;-66
2022/04/23 11:35:03;;;;;;;14.85;8.65;;;;;;;21.34;30.73;99613.69;4960272;28;20528;-68
2022/04/23 11:37:39;;;;;;;17.45;9.60;;;;;;;19.67;33.55;99626.25;4965929;28;20399;-67
2022/04/23 11:40:08;;;;;;;16.73;10.30;;;;;;;19.65;33.96;99620.97;4977524;28;20107;-65
2022/04/23 11:42:41;;;;;;;17.33;10.70;;;;;;;20.46;33.33;99634.38;4992763;28;20047;-66
2022/04/23 11:45:08;;;;;;;21.00;10.68;;;;;;;21.60;31.80;99612.66;4992709;28;20627;-64
2022/04/23 11:47:35;;;;;;;15.10;9.70;;;;;;;20.58;32.96;99620.00;4976468;28;20140;-63
2022/04/23 11:50:28;;;;;;;23.60;10.85;;;;;;;20.41;33.08;99622.34;5008887;28;20105;-64
2022/04/23 11:53:01;;;;;;;17.15;10.57;;;;;;;19.87;34.30;99632.59;5008222;28;20049;-65